Time;durP1;ratioP1;P1;durP2;ratioP2;P2;SDS_P1;SDS_P2;PMS_P1;PMS_P2;Temp;Humidity;BMP_temperature;BMP_pressure;BME280_temperature;BME280_humidity;BME280_pressure;Samples;Min_cycle;Max_cycle;Signal;HPM_P1;HPM_P2
2022/02/19 00:03:06;;;;;;;6.30;4.40;;;;;;;19.95;35.03;100999.48;101727;1344;61409;-82
2022/02/19 00:05:52;;;;;;;9.20;5.10;;;;;;;19.95;34.92;100998.97;101711;1344;74136;-80
2022/02/19 00:09:09;;;;;;;6.40;4.50;;;;;;;19.95;34.91;100991.99;101757;1339;74925;-84
2022/02/19 00:11:56;;;;;;;7.50;5.20;;;;;;;19.94;35.03;100996.84;101859;1341;61298;-83
2022/02/19 00:14:55;;;;;;;;;;;;;;;;;;;;;
2022/02/19 00:17:54;;;;;;;;;;;;;;;;;;;;;
2022/02/19 00:21:01;;;;;;;;;;;;;;;;;;;;;
2022/02/19 00:24:03;;;;;;;8.40;5.30;;;;;;;19.94;35.11;100989.91;101786;1343;61244;-82
2022/02/19 00:26:56;;;;;;;7.40;5.30;;;;;;;19.93;35.07;100994.05;101677;1348;61243;-83
2022/02/19 00:30:28;;;;;;;7.50;5.10;;;;;;;19.93;35.04;101009.42;101608;1344;74340;-84
2022/02/19 00:33:08;;;;;;;7.00;5.00;;;;;;;19.93;35.06;101006.39;101696;1341;74915;-84
2022/02/19 00:36:35;;;;;;;8.40;5.10;;;;;;;19.93;35.09;101009.98;101871;1341;61496;-82
2022/02/19 00:39:12;;;;;;;7.60;4.90;;;;;;;19.93;35.08;101021.94;101869;1338;61175;-85
2022/02/19 00:42:07;;;;;;;7.30;4.70;;;;;;;19.93;35.12;101029.61;102160;1335;71647;-79
2022/02/19 00:45:03;;;;;;;7.80;4.90;;;;;;;19.93;35.05;101027.08;102333;1335;74935;-83
2022/02/19 00:47:49;;;;;;;6.80;4.70;;;;;;;19.93;35.12;101023.20;102300;1334;61512;-83
2022/02/19 00:50:35;;;;;;;7.30;5.00;;;;;;;19.92;35.07;101020.70;102290;1335;61196;-84
2022/02/19 00:53:36;;;;;;;6.80;4.90;;;;;;;19.93;35.09;101023.73;102305;1335;73945;-85
2022/02/19 00:56:31;;;;;;;8.60;5.10;;;;;;;19.92;35.13;101023.95;102301;1335;75267;-89
2022/02/19 00:59:28;;;;;;;7.30;4.90;;;;;;;19.91;35.16;101019.69;102333;1333;61646;-83
2022/02/19 01:02:05;;;;;;;8.10;5.00;;;;;;;19.92;35.07;101008.25;102746;1325;61194;-82
2022/02/19 01:05:04;;;;;;;8.60;5.10;;;;;;;19.91;35.12;101004.88;102987;1323;73944;-85
2022/02/19 01:08:19;;;;;;;8.70;5.20;;;;;;;19.90;35.20;101006.55;103985;1317;74823;-87
2022/02/19 01:11:30;;;;;;;7.70;4.80;;;;;;;19.91;35.19;101012.42;103234;1320;61318;-87
2022/02/19 01:14:30;;;;;;;7.70;5.00;;;;;;;19.91;35.10;101017.23;103122;1322;61750;-83
2022/02/19 01:17:24;;;;;;;7.70;5.10;;;;;;;19.90;35.28;101013.88;103930;1317;73528;-83
2022/02/19 01:20:19;;;;;;;7.10;4.80;;;;;;;19.90;35.04;101012.27;104218;1315;75910;-83
2022/02/19 01:26:41;;;;;;;;;;;;;;;;;;;;;
2022/02/19 01:29:40;;;;;;;7.10;4.70;;;;;;;19.89;35.28;101009.28;103447;1320;73345;-86
2022/02/19 01:32:50;;;;;;;9.60;4.90;;;;;;;19.90;35.22;101016.94;102727;1328;74753;-85
2022/02/19 01:35:38;;;;;;;6.80;4.80;;;;;;;19.89;35.19;101020.20;102705;1328;62138;-84
2022/02/19 01:38:35;;;;;;;9.00;4.80;;;;;;;19.89;35.22;101027.90;102632;1329;61499;-85
2022/02/19 01:41:39;;;;;;;7.00;4.60;;;;;;;19.89;35.23;101017.36;102712;1329;73298;-82
2022/02/19 01:45:39;;;;;;;7.00;4.50;;;;;;;19.88;35.23;101010.46;102325;1334;74923;-82
2022/02/19 01:47:56;;;;;;;6.40;4.40;;;;;;;19.88;35.20;101017.08;102005;1335;61327;-81
2022/02/19 01:51:23;;;;;;;6.70;4.10;;;;;;;19.88;35.21;101021.35;102322;1335;61343;-85
2022/02/19 01:54:15;;;;;;;6.20;4.00;;;;;;;19.87;35.28;101016.20;101905;1341;72809;-82
2022/02/19 01:57:10;;;;;;;7.20;4.30;;;;;;;19.87;35.32;101023.70;101884;1338;74636;-79
2022/02/19 02:00:40;;;;;;;6.80;4.30;;;;;;;19.88;35.27;101029.77;101762;1341;61376;-82
2022/02/19 02:03:27;;;;;;;5.60;3.80;;;;;;;19.87;35.19;101038.22;101761;1344;61221;-82
2022/02/19 02:06:33;;;;;;;7.60;4.20;;;;;;;19.87;35.25;101034.43;101546;1348;74311;-83
2022/02/19 02:10:09;;;;;;;7.90;4.70;;;;;;;19.87;35.30;101035.18;101594;1344;75715;-83
2022/02/19 02:12:54;;;;;;;;;;;;;;;;;;;;;
2022/02/19 02:15:46;;;;;;;6.20;4.10;;;;;;;19.86;35.32;101041.12;101688;1347;61237;-83
2022/02/19 02:18:44;;;;;;;;;;;;;;;;;;;;;
2022/02/19 02:22:08;;;;;;;7.60;4.40;;;;;;;19.86;35.34;101043.08;101578;1347;74994;-86
2022/02/19 02:25:04;;;;;;;6.70;3.90;;;;;;;19.86;35.33;101031.68;101616;1347;61236;-84
2022/02/19 02:27:52;;;;;;;6.00;3.80;;;;;;;19.86;35.27;101029.52;101679;1346;61242;-79
2022/02/19 02:30:50;;;;;;;7.50;4.40;;;;;;;19.86;35.20;101030.42;101714;1341;72920;-83
2022/02/19 02:34:19;;;;;;;6.60;4.00;;;;;;;19.85;35.29;101027.27;101834;1340;75274;-82
2022/02/19 02:37:47;;;;;;;;;;;;;;;;;;;;;
2022/02/19 02:40:43;;;;;;;6.50;4.30;;;;;;;19.84;35.38;101027.11;101904;1342;61220;-85
2022/02/19 02:43:55;;;;;;;9.30;4.20;;;;;;;19.85;35.34;101019.05;101946;1338;73956;-80
2022/02/19 02:46:51;;;;;;;;;;;;;;;;;;;;;
2022/02/19 02:49:47;;;;;;;;;;;;;;;;;;;;;
2022/02/19 02:53:16;;;;;;;7.40;4.00;;;;;;;19.84;35.25;100999.30;101505;1347;61339;-81
2022/02/19 02:56:33;;;;;;;;;;;;;;;;;;;;;
2022/02/19 02:59:17;;;;;;;;;;;;;;;;;;;;;
2022/02/19 03:02:29;;;;;;;;;;;;;;;;;;;;;
2022/02/19 03:05:40;;;;;;;7.20;3.80;;;;;;;19.83;35.34;101006.13;101068;1355;61256;-85
2022/02/19 03:09:01;;;;;;;7.00;4.10;;;;;;;19.82;35.26;101005.80;100942;1354;74154;-85
2022/02/19 03:12:37;;;;;;;6.80;4.20;;;;;;;19.83;35.27;101001.11;100466;1359;76095;-79
2022/02/19 03:16:01;;;;;;;;;;;;;;;;;;;;;
2022/02/19 03:18:53;;;;;;;6.70;3.90;;;;;;;19.82;35.21;100987.28;100361;1362;61243;-83
2022/02/19 03:22:09;;;;;;;6.90;4.00;;;;;;;19.82;35.24;100981.56;100192;1362;74371;-82
2022/02/19 03:28:09;;;;;;;8.00;4.20;;;;;;;19.82;35.23;100978.73;101203;1353;61895;-81
2022/02/19 03:31:01;;;;;;;7.80;4.00;;;;;;;19.82;35.26;100980.27;101535;1347;61246;-83
2022/02/19 03:33:56;;;;;;;;;;;;;;;;;;;;;
2022/02/19 03:37:09;;;;;;;7.00;4.40;;;;;;;19.81;35.27;100978.02;101948;1335;75763;-82
2022/02/19 03:40:10;;;;;;;6.00;3.70;;;;;;;19.80;35.22;100982.89;102126;1335;61724;-83
2022/02/19 03:43:36;;;;;;;7.10;4.00;;;;;;;19.80;35.24;100986.48;101783;1341;61346;-85
2022/02/19 03:46:22;;;;;;;7.40;4.10;;;;;;;19.80;35.21;100983.45;101584;1346;72945;-83
2022/02/19 03:49:47;;;;;;;6.80;3.90;;;;;;;19.79;35.27;100977.74;101665;1343;72545;-82
2022/02/19 03:52:23;;;;;;;8.30;4.60;;;;;;;19.80;35.28;100978.80;101956;1338;61248;-86
2022/02/19 03:55:19;;;;;;;5.60;3.60;;;;;;;19.80;35.28;100983.44;101943;1338;61532;-83
2022/02/19 03:57:56;;;;;;;6.10;3.50;;;;;;;19.80;35.27;100985.06;102073;1332;72645;-85
2022/02/19 04:01:02;;;;;;;7.80;4.00;;;;;;;19.79;35.27;100989.37;102446;1332;74820;-85
2022/02/19 04:03:59;;;;;;;6.40;4.00;;;;;;;19.79;35.29;100986.38;102100;1338;61294;-83
2022/02/19 04:07:11;;;;;;;7.30;4.20;;;;;;;19.78;35.19;100981.73;102094;1337;61533;-89
2022/02/19 04:09:58;;;;;;;6.60;4.00;;;;;;;19.78;35.20;100975.86;102092;1337;72972;-87
2022/02/19 04:13:17;;;;;;;;;;;;;;;;;;;;;
2022/02/19 04:16:08;;;;;;;7.00;4.10;;;;;;;19.77;35.34;100981.45;102140;1338;61301;-85
2022/02/19 04:19:18;;;;;;;7.20;4.00;;;;;;;19.78;35.24;100977.86;102131;1329;61569;-83
2022/02/19 04:22:04;;;;;;;7.20;4.10;;;;;;;19.77;35.23;100981.65;102597;1329;74682;-86
2022/02/19 04:25:04;;;;;;;6.90;4.10;;;;;;;19.77;35.32;100980.05;102607;1329;76179;-84
2022/02/19 04:28:02;;;;;;;;;;;;;;;;;;;;;
2022/02/19 04:31:07;;;;;;;6.40;4.00;;;;;;;19.76;35.21;100985.08;102731;1328;62256;-86
2022/02/19 04:33:56;;;;;;;7.60;4.30;;;;;;;19.76;35.22;100994.56;102576;1327;73845;-83
2022/02/19 04:36:53;;;;;;;7.40;4.20;;;;;;;19.75;35.24;100991.02;102334;1332;74821;-82
2022/02/19 04:39:40;;;;;;;6.40;4.10;;;;;;;19.76;35.33;100993.85;102425;1332;61212;-82
2022/02/19 04:42:25;;;;;;;7.60;3.90;;;;;;;19.76;35.27;100989.40;102533;1332;61201;-83
2022/02/19 04:45:18;;;;;;;8.60;4.30;;;;;;;19.76;35.29;100985.29;102559;1332;72771;-79
2022/02/19 04:48:30;;;;;;;6.60;4.00;;;;;;;19.75;35.35;100984.26;102436;1332;76069;-82
2022/02/19 04:51:25;;;;;;;5.90;3.60;;;;;;;19.75;35.25;100985.90;102550;1332;61498;-85
2022/02/19 04:54:18;;;;;;;;;;;;;;;;;;;;;
2022/02/19 04:57:17;;;;;;;5.50;3.60;;;;;;;19.74;35.28;100986.46;102530;1329;72947;-82
2022/02/19 05:00:26;;;;;;;8.30;3.80;;;;;;;19.74;35.23;100983.79;102509;1332;75061;-86
2022/02/19 05:03:23;;;;;;;7.50;3.90;;;;;;;19.73;35.21;100991.16;102096;1336;61562;-83
2022/02/19 05:06:40;;;;;;;7.90;4.40;;;;;;;19.73;35.24;100988.66;102101;1337;61808;-83
2022/02/19 05:09:33;;;;;;;6.40;3.50;;;;;;;19.72;35.27;100992.29;101892;1341;72722;-81
2022/02/19 05:12:59;;;;;;;7.30;3.80;;;;;;;19.73;35.27;101001.73;101890;1341;76812;-86
2022/02/19 05:15:59;;;;;;;;;;;;;;;;;;;;;
2022/02/19 05:19:36;;;;;;;8.40;3.90;;;;;;;19.72;35.23;101003.73;101857;1341;61936;-91
2022/02/19 05:22:25;;;;;;;7.00;3.80;;;;;;;19.72;35.33;101007.51;101831;1341;74086;-85
2022/02/19 05:25:45;;;;;;;;;;;;;;;;;;;;;
2022/02/19 05:28:45;;;;;;;7.00;3.80;;;;;;;19.72;35.35;101002.14;101719;1348;61768;-78
2022/02/19 05:31:39;;;;;;;7.00;4.10;;;;;;;19.72;35.36;100997.14;101677;1347;61418;-83
2022/02/19 05:34:56;;;;;;;;;;;;;;;;;;;;;
2022/02/19 05:37:55;;;;;;;6.90;3.90;;;;;;;19.71;35.20;100997.70;101682;1347;74929;-83
2022/02/19 05:40:39;;;;;;;7.00;3.80;;;;;;;19.72;35.26;100997.30;101595;1347;61179;-83
2022/02/19 05:44:08;;;;;;;8.00;4.40;;;;;;;19.71;35.35;100993.24;101549;1350;61328;-84
2022/02/19 05:47:04;;;;;;;6.40;4.10;;;;;;;19.71;35.20;100982.54;101634;1347;72838;-79
2022/02/19 05:50:13;;;;;;;7.10;3.90;;;;;;;19.71;35.14;100979.69;101560;1347;75037;-82
2022/02/19 05:53:13;;;;;;;6.90;4.00;;;;;;;19.70;35.21;100986.87;101661;1347;61386;-85
2022/02/19 05:55:57;;;;;;;;;;;;;;;;;;;;;
2022/02/19 05:59:32;;;;;;;6.50;3.50;;;;;;;19.71;35.24;100982.53;101745;1340;74287;-83
2022/02/19 06:02:31;;;;;;;;;;;;;;;;;;;;;
2022/02/19 06:06:00;;;;;;;6.20;3.90;;;;;;;19.71;35.21;100974.34;101756;1344;61352;-85
2022/02/19 06:09:35;;;;;;;7.30;4.30;;;;;;;19.71;35.24;100972.39;101357;1352;61603;-85
2022/02/19 06:12:41;;;;;;;8.40;4.10;;;;;;;19.71;35.18;100967.73;100435;1359;73054;-79
2022/02/19 06:15:58;;;;;;;;;;;;;;;;;;;;;
2022/02/19 06:18:51;;;;;;;;;;;;;;;;;;;;;
2022/02/19 06:22:13;;;;;;;5.80;3.70;;;;;;;19.71;35.29;100969.84;99043;1377;62054;-87
2022/02/19 06:25:24;;;;;;;6.20;4.10;;;;;;;19.72;35.33;100976.63;98828;1382;72934;-84
2022/02/19 06:31:48;;;;;;;8.10;4.30;;;;;;;19.76;35.29;100976.35;104109;1310;600696;-84
2022/02/19 06:34:44;;;;;;;7.10;4.20;;;;;;;19.73;35.22;100972.60;104030;1318;72838;-82
2022/02/19 06:37:30;;;;;;;8.10;4.30;;;;;;;19.73;35.08;100968.84;104103;1318;60484;-85
2022/02/19 06:40:06;;;;;;;9.20;4.50;;;;;;;19.73;35.36;100968.66;104065;1317;63652;-83
2022/02/19 06:43:02;;;;;;;6.80;4.10;;;;;;;19.73;35.25;100962.27;104079;1318;72861;-84
2022/02/19 06:45:42;;;;;;;6.70;4.30;;;;;;;19.73;35.27;100959.95;104019;1315;271019;-85
2022/02/19 06:48:38;;;;;;;;;;;;;;;;;;;;;
2022/02/19 06:51:35;;;;;;;7.20;4.40;;;;;;;19.71;35.22;100965.19;104250;1315;61720;-86
2022/02/19 06:54:23;;;;;;;7.50;4.50;;;;;;;19.72;35.16;100963.58;104198;1314;72860;-87
2022/02/19 06:57:32;;;;;;;8.90;4.50;;;;;;;19.71;35.26;100957.37;104198;1315;73477;-83
2022/02/19 07:00:07;;;;;;;7.50;4.40;;;;;;;19.70;35.32;100967.05;103367;1321;60770;-85
2022/02/19 07:02:48;;;;;;;;;;;;;;;;;;;;;
2022/02/19 07:05:38;;;;;;;8.10;4.10;;;;;;;19.71;35.26;100975.42;103235;1321;72984;-84
2022/02/19 07:08:31;;;;;;;6.60;4.00;;;;;;;19.71;35.20;100974.73;103356;1321;74192;-85
2022/02/19 07:11:17;;;;;;;10.50;4.70;;;;;;;19.69;35.27;100972.66;103493;1316;60533;-90
2022/02/19 07:14:03;;;;;;;8.90;4.40;;;;;;;19.69;35.16;100973.00;104192;1315;60410;-84
2022/02/19 07:17:02;;;;;;;8.70;4.50;;;;;;;19.70;35.20;100971.58;103356;1321;72869;-84
2022/02/19 07:19:49;;;;;;;8.10;4.60;;;;;;;19.69;35.20;100965.16;103394;1321;74500;-82
2022/02/19 07:22:42;;;;;;;11.60;5.10;;;;;;;19.69;35.32;100957.48;103261;1321;60911;-88
2022/02/19 07:25:31;;;;;;;6.50;4.40;;;;;;;19.69;35.32;100962.86;103251;1321;60591;-82
2022/02/19 07:28:20;;;;;;;9.90;5.20;;;;;;;19.69;35.26;100963.73;103374;1321;72693;-81
2022/02/19 07:31:25;;;;;;;8.20;4.50;;;;;;;19.69;35.29;100960.67;103360;1321;72165;-83
2022/02/19 07:34:21;;;;;;;9.00;4.30;;;;;;;19.69;35.29;100957.65;103380;1321;61807;-83
2022/02/19 07:37:07;;;;;;;7.70;4.80;;;;;;;19.69;35.22;100956.42;103700;1312;61837;-85
2022/02/19 07:39:48;;;;;;;8.20;4.40;;;;;;;19.69;35.16;100951.77;104297;1312;72760;-79
2022/02/19 07:42:44;;;;;;;7.10;4.10;;;;;;;19.69;35.29;100945.70;104198;1312;71917;-83
2022/02/19 07:45:32;;;;;;;7.40;4.20;;;;;;;19.69;35.19;100952.27;104253;1313;61653;-85
2022/02/19 07:48:12;;;;;;;10.50;4.40;;;;;;;19.69;35.13;100951.05;104252;1312;61478;-84
2022/02/19 08:00:26;;;;;;;7.20;4.20;;;;;;;19.69;35.25;100956.93;103652;1318;60700;-84
2022/02/19 08:03:42;;;;;;;;;;;;;;;;;;;;;
2022/02/19 08:06:44;;;;;;;8.20;4.50;;;;;;;19.70;35.17;100957.23;103638;1318;74051;-83
2022/02/19 08:09:30;;;;;;;6.90;4.40;;;;;;;19.71;35.30;100949.19;103887;1318;60474;-84
2022/02/19 08:12:34;;;;;;;8.70;4.70;;;;;;;19.71;35.23;100949.35;103647;1318;61570;-83
2022/02/19 08:15:40;;;;;;;9.30;4.70;;;;;;;19.71;35.06;100957.89;103654;1318;73056;-81
2022/02/19 08:18:23;;;;;;;8.30;4.20;;;;;;;19.71;35.23;100967.01;103626;1318;74409;-84
2022/02/19 08:21:13;;;;;;;6.60;4.20;;;;;;;19.72;35.21;100976.02;103634;1318;60464;-82
2022/02/19 08:24:06;;;;;;;7.20;4.40;;;;;;;19.73;35.21;100982.61;103479;1318;61087;-83
2022/02/19 08:26:53;;;;;;;7.50;4.40;;;;;;;19.73;35.33;100985.09;103941;1316;74000;-83
2022/02/19 08:29:52;;;;;;;8.40;4.50;;;;;;;19.73;35.23;100974.02;104282;1313;74291;-83
2022/02/19 08:32:50;;;;;;;8.90;4.80;;;;;;;19.73;35.27;100965.63;104306;1313;61306;-84
2022/02/19 08:35:47;;;;;;;7.10;4.00;;;;;;;19.73;35.22;100966.34;104836;1306;60282;-81
2022/02/19 08:38:45;;;;;;;7.20;4.40;;;;;;;19.74;35.21;100963.45;104855;1306;73886;-84
2022/02/19 08:41:52;;;;;;;9.20;4.60;;;;;;;19.74;35.35;100966.27;104790;1306;74336;-86
2022/02/19 08:44:33;;;;;;;;;;;;;;;;;;;;;
2022/02/19 08:47:27;;;;;;;;;;;;;;;;;;;;;
2022/02/19 08:50:11;;;;;;;8.40;4.50;;;;;;;19.75;35.27;100958.52;104858;1306;73707;-81
2022/02/19 08:53:04;;;;;;;7.30;4.30;;;;;;;19.75;35.34;100953.33;104547;1307;73934;-84
2022/02/19 08:56:10;;;;;;;7.30;4.20;;;;;;;19.76;35.30;100945.29;104288;1312;60418;-84
2022/02/19 08:58:56;;;;;;;7.00;4.30;;;;;;;19.75;35.25;100945.13;104278;1312;61670;-81
2022/02/19 09:01:42;;;;;;;7.40;4.30;;;;;;;19.76;35.23;100944.77;104279;1313;73062;-80
2022/02/19 09:04:31;;;;;;;7.40;4.30;;;;;;;19.76;35.24;100940.80;103711;1319;72368;-84
2022/02/19 09:07:21;;;;;;;7.20;4.10;;;;;;;19.76;35.29;100936.34;103702;1319;60471;-83
2022/02/19 09:10:01;;;;;;;7.10;4.10;;;;;;;19.75;35.42;100936.21;103619;1319;60216;-83
2022/02/19 09:13:14;;;;;;;8.40;3.90;;;;;;;19.75;35.27;100933.88;103619;1319;73169;-79
2022/02/19 09:16:13;;;;;;;;;;;;;;;;;;;;;
2022/02/19 09:19:02;;;;;;;6.40;3.70;;;;;;;19.75;35.32;100925.69;102987;1325;60463;-82
2022/02/19 09:22:11;;;;;;;6.90;4.20;;;;;;;19.75;35.40;100928.39;102672;1329;59673;-82
2022/02/19 09:24:42;;;;;;;6.90;4.20;;;;;;;19.75;35.45;100928.73;102659;1329;72266;-83
2022/02/19 09:28:09;;;;;;;7.80;4.00;;;;;;;19.75;35.24;100923.90;102662;1329;72052;-82
2022/02/19 09:30:48;;;;;;;;;;;;;;;;;;;;;
2022/02/19 09:33:52;;;;;;;8.60;4.40;;;;;;;19.75;35.41;100914.65;102748;1326;60555;-83
2022/02/19 09:36:42;;;;;;;6.90;3.80;;;;;;;19.75;35.32;100908.56;102755;1326;73053;-83
2022/02/19 09:39:33;;;;;;;9.00;3.80;;;;;;;19.74;35.32;100905.91;102835;1325;72999;-84
2022/02/19 09:42:06;;;;;;;6.90;3.80;;;;;;;19.75;35.31;100913.55;102729;1326;60551;-83
2022/02/19 09:45:23;;;;;;;;;;;;;;;;;;;;;
2022/02/19 09:48:08;;;;;;;;;;;;;;;;;;;;;
2022/02/19 09:51:00;;;;;;;7.10;3.90;;;;;;;19.74;35.45;100916.08;103063;1324;74108;-82
2022/02/19 09:53:59;;;;;;;;;;;;;;;;;;;;;
2022/02/19 09:56:54;;;;;;;7.40;4.30;;;;;;;19.75;35.31;100905.01;102676;1324;60373;-85
2022/02/19 09:59:56;;;;;;;7.10;3.90;;;;;;;19.75;35.42;100905.55;103080;1323;73904;-83
2022/02/19 10:02:53;;;;;;;6.70;4.00;;;;;;;19.75;35.30;100902.67;102739;1325;74304;-81
2022/02/19 10:05:48;;;;;;;7.60;4.00;;;;;;;19.75;35.47;100903.40;102930;1326;61509;-85
2022/02/19 10:08:37;;;;;;;7.20;4.20;;;;;;;19.75;35.41;100898.74;102911;1326;60634;-85
2022/02/19 10:11:33;;;;;;;6.90;3.80;;;;;;;19.75;35.40;100900.89;102559;1326;74083;-83
2022/02/19 10:14:48;;;;;;;;;;;;;;;;;;;;;
2022/02/19 10:17:36;;;;;;;9.00;4.00;;;;;;;19.74;35.41;100897.70;102735;1326;61273;-86
2022/02/19 10:20:34;;;;;;;8.90;4.10;;;;;;;19.75;35.50;100894.28;103392;1318;60448;-81
2022/02/19 10:23:23;;;;;;;7.20;3.90;;;;;;;19.75;35.50;100890.14;102902;1325;74274;-83
2022/02/19 10:26:43;;;;;;;8.10;4.00;;;;;;;19.75;35.47;100884.10;101922;1338;72003;-84
2022/02/19 10:29:28;;;;;;;8.40;3.90;;;;;;;19.75;35.39;100887.33;101900;1338;60252;-83
2022/02/19 10:32:16;;;;;;;7.00;3.90;;;;;;;19.75;35.43;100878.21;101854;1338;60468;-80
2022/02/19 10:36:00;;;;;;;7.00;4.10;;;;;;;19.75;35.40;100878.20;102295;1334;72850;-87
2022/02/19 10:39:12;;;;;;;7.90;3.90;;;;;;;19.74;35.48;100875.73;101849;1341;73765;-84
2022/02/19 10:42:08;;;;;;;7.00;3.70;;;;;;;19.74;35.38;100869.15;101883;1339;61373;-82
2022/02/19 10:45:02;;;;;;;6.10;3.80;;;;;;;19.74;35.34;100856.44;101774;1342;60661;-83
2022/02/19 10:47:55;;;;;;;7.10;4.30;;;;;;;19.74;35.38;100845.75;101787;1344;74173;-86
2022/02/19 10:50:54;;;;;;;7.30;4.40;;;;;;;19.74;35.35;100842.02;101823;1342;74342;-82
2022/02/19 10:53:37;;;;;;;9.00;4.20;;;;;;;19.74;35.31;100840.59;101650;1348;62274;-83
2022/02/19 10:56:41;;;;;;;6.50;3.80;;;;;;;19.74;35.31;100835.04;101649;1348;60493;-85
2022/02/19 10:59:07;;;;;;;8.20;4.20;;;;;;;19.74;35.25;100831.27;101682;1348;73770;-79
2022/02/19 11:02:15;;;;;;;7.80;3.90;;;;;;;19.74;35.23;100830.73;101782;1345;74637;-82
2022/02/19 11:05:07;;;;;;;;;;;;;;;;;;;;;
2022/02/19 11:07:56;;;;;;;8.10;4.30;;;;;;;19.75;35.22;100826.26;102119;1335;61447;-81
2022/02/19 11:10:55;;;;;;;6.20;3.70;;;;;;;19.74;35.16;100818.08;102588;1329;72908;-84
2022/02/19 11:14:06;;;;;;;7.00;4.00;;;;;;;19.74;35.21;100819.14;102480;1332;73957;-84
2022/02/19 11:16:55;;;;;;;6.60;3.70;;;;;;;19.74;35.26;100816.29;102472;1332;62616;-82
2022/02/19 11:20:01;;;;;;;7.10;4.00;;;;;;;19.74;35.17;100810.19;102697;1329;60442;-84
2022/02/19 11:22:44;;;;;;;8.10;3.90;;;;;;;19.74;35.22;100809.84;103245;1319;73367;-84
2022/02/19 11:25:38;;;;;;;7.10;4.00;;;;;;;19.75;35.22;100806.95;103365;1320;75128;-83
2022/02/19 11:28:28;;;;;;;7.70;3.70;;;;;;;19.75;35.15;100803.86;103587;1319;61646;-79
2022/02/19 11:31:24;;;;;;;5.90;3.50;;;;;;;19.75;35.17;100805.13;103403;1318;60375;-85
2022/02/19 11:34:19;;;;;;;5.20;3.60;;;;;;;19.76;35.12;100803.67;103712;1318;72910;-84
2022/02/19 11:36:54;;;;;;;7.40;3.80;;;;;;;19.75;35.02;100800.67;103130;1324;74200;-83
2022/02/19 11:39:54;;;;;;;6.90;3.60;;;;;;;19.76;35.30;100797.58;102916;1324;60430;-83
2022/02/19 11:42:44;;;;;;;6.30;3.70;;;;;;;19.77;35.21;100794.88;102974;1323;60369;-78
2022/02/19 11:45:42;;;;;;;6.90;3.60;;;;;;;19.76;35.31;100788.10;102696;1329;73864;-83
2022/02/19 11:48:45;;;;;;;7.70;3.70;;;;;;;19.77;35.12;100783.79;102573;1329;72996;-82
2022/02/19 11:51:22;;;;;;;6.30;3.60;;;;;;;19.78;35.09;100780.71;102795;1326;60799;-82
2022/02/19 11:54:11;;;;;;;5.80;3.50;;;;;;;19.79;35.16;100779.94;102855;1325;61754;-83
2022/02/19 11:56:53;;;;;;;5.50;3.40;;;;;;;19.78;35.14;100777.09;102522;1332;72879;-81
2022/02/19 11:59:50;;;;;;;5.90;3.40;;;;;;;19.79;35.19;100774.91;102462;1332;74166;-82
2022/02/19 12:02:46;;;;;;;;;;;;;;;;;;;;;
2022/02/19 12:05:37;;;;;;;6.30;3.20;;;;;;;19.79;35.13;100775.63;102785;1327;60432;-85
2022/02/19 12:08:17;;;;;;;6.80;3.90;;;;;;;19.80;35.22;100773.98;102733;1326;72972;-81
2022/02/19 12:11:26;;;;;;;;;;;;;;;;;;;;;
2022/02/19 12:14:18;;;;;;;6.90;3.80;;;;;;;19.80;35.23;100761.15;103017;1319;60491;-81
2022/02/19 12:17:15;;;;;;;6.40;3.60;;;;;;;19.79;35.13;100758.29;103271;1320;60409;-80
2022/02/19 12:20:15;;;;;;;;;;;;;;;;;;;;;
2022/02/19 12:22:53;;;;;;;6.70;3.30;;;;;;;19.79;35.31;100754.00;103634;1315;73289;-85
2022/02/19 12:26:08;;;;;;;6.40;3.60;;;;;;;19.79;35.21;100747.76;104043;1315;61128;-80
2022/02/19 12:28:47;;;;;;;6.60;3.20;;;;;;;19.79;35.23;100743.30;104154;1315;60663;-82
2022/02/19 12:31:39;;;;;;;7.50;3.70;;;;;;;19.79;35.12;100746.13;104242;1313;73047;-82
2022/02/19 12:34:12;;;;;;;5.80;3.50;;;;;;;19.80;35.30;100743.27;104371;1309;73711;-83
2022/02/19 12:37:18;;;;;;;6.50;3.70;;;;;;;19.79;35.13;100739.20;104257;1311;60637;-81
2022/02/19 12:39:55;;;;;;;7.20;3.20;;;;;;;19.80;35.17;100732.20;104041;1312;62644;-80
2022/02/19 12:42:25;;;;;;;6.70;3.50;;;;;;;19.79;35.33;100732.05;104129;1313;73986;-80
2022/02/19 12:45:14;;;;;;;7.10;3.90;;;;;;;19.79;35.32;100734.88;103995;1313;74936;-83
2022/02/19 12:48:00;;;;;;;6.30;3.60;;;;;;;19.80;35.20;100730.38;104236;1312;61749;-84
2022/02/19 12:50:34;;;;;;;6.20;3.30;;;;;;;19.80;35.37;100729.69;104268;1312;60492;-81
2022/02/19 12:53:30;;;;;;;6.10;3.60;;;;;;;19.80;35.23;100723.63;104311;1312;72148;-83
2022/02/19 12:56:08;;;;;;;7.60;3.60;;;;;;;19.79;35.07;100722.02;104165;1312;75075;-80
2022/02/19 12:58:56;;;;;;;7.90;3.60;;;;;;;19.79;35.24;100716.48;104192;1312;60444;-81
2022/02/19 13:01:50;;;;;;;;;;;;;;;;;;;;;
2022/02/19 13:04:36;;;;;;;6.60;3.30;;;;;;;19.79;35.22;100722.25;104279;1312;72930;-83
2022/02/19 13:07:42;;;;;;;5.40;3.30;;;;;;;19.79;35.22;100714.75;104307;1312;72857;-86
2022/02/19 13:10:38;;;;;;;5.70;3.50;;;;;;;19.78;35.28;100712.09;104171;1312;61152;-83
2022/02/19 13:13:25;;;;;;;6.10;3.30;;;;;;;19.78;35.17;100714.09;103671;1318;60508;-85
2022/02/19 13:16:11;;;;;;;7.60;3.60;;;;;;;19.78;35.28;100710.85;104160;1315;73727;-83
2022/02/19 13:19:00;;;;;;;6.00;3.00;;;;;;;19.78;35.32;100709.05;104083;1315;74400;-87
2022/02/19 13:21:42;;;;;;;5.90;3.00;;;;;;;19.78;35.22;100707.45;103896;1317;60406;-83
2022/02/19 13:24:38;;;;;;;6.80;3.50;;;;;;;19.78;35.27;100698.35;103902;1316;60467;-86
2022/02/19 13:27:33;;;;;;;6.10;3.30;;;;;;;19.78;35.34;100700.50;104053;1317;73671;-82
2022/02/19 13:30:27;;;;;;;7.80;3.70;;;;;;;19.77;35.43;100700.54;104085;1317;74615;-84
2022/02/19 13:33:15;;;;;;;6.50;3.30;;;;;;;19.78;35.33;100701.59;103786;1318;60504;-82
2022/02/19 13:36:20;;;;;;;6.50;3.60;;;;;;;19.78;35.38;100703.40;103696;1318;61222;-80
2022/02/19 13:39:15;;;;;;;6.40;3.20;;;;;;;19.77;35.32;100708.41;103694;1319;73721;-82
2022/02/19 13:42:13;;;;;;;6.70;3.30;;;;;;;19.77;35.45;100711.09;103586;1318;75044;-83
2022/02/19 13:44:57;;;;;;;;;;;;;;;;;;;;;
2022/02/19 13:47:25;;;;;;;6.00;3.20;;;;;;;19.77;35.34;100701.80;103012;1324;60764;-79
2022/02/19 13:50:13;;;;;;;6.40;3.20;;;;;;;19.78;35.57;100701.41;102914;1321;73454;-83
2022/02/19 13:52:50;;;;;;;;;;;;;;;;;;;;;
2022/02/19 13:55:49;;;;;;;;;;;;;;;;;;;;;
2022/02/19 13:58:50;;;;;;;5.60;2.90;;;;;;;19.78;35.35;100697.99;103634;1319;61228;-83
2022/02/19 14:01:37;;;;;;;5.80;3.00;;;;;;;19.78;35.54;100692.83;103697;1321;72824;-78
2022/02/19 14:04:36;;;;;;;7.70;3.30;;;;;;;19.78;35.45;100695.88;103738;1321;74058;-80
2022/02/19 14:07:51;;;;;;;6.60;3.30;;;;;;;19.77;35.51;100694.30;102704;1324;62031;-81
2022/02/19 14:10:27;;;;;;;6.30;3.30;;;;;;;19.77;35.64;100693.03;103122;1320;61736;-83
2022/02/19 14:13:14;;;;;;;6.00;3.20;;;;;;;19.78;35.41;100690.86;103350;1320;72736;-85
2022/02/19 14:16:00;;;;;;;6.10;2.90;;;;;;;19.78;35.55;100694.27;103351;1320;74071;-82
2022/02/19 14:18:49;;;;;;;5.80;3.20;;;;;;;19.78;35.53;100693.53;103385;1320;61454;-83
2022/02/19 14:21:48;;;;;;;6.00;3.00;;;;;;;19.78;35.65;100693.02;103544;1320;61408;-82
2022/02/19 14:24:52;;;;;;;6.70;3.00;;;;;;;19.77;35.43;100690.92;103769;1318;73086;-89
2022/02/19 14:28:12;;;;;;;6.00;3.00;;;;;;;19.77;35.48;100692.18;103887;1318;74865;-81
2022/02/19 14:31:02;;;;;;;5.70;3.10;;;;;;;19.77;35.52;100690.21;102985;1324;60363;-81
2022/02/19 14:33:33;;;;;;;5.70;3.20;;;;;;;19.76;35.55;100695.04;103129;1324;60499;-84
2022/02/19 14:36:24;;;;;;;6.10;3.20;;;;;;;19.77;35.64;100690.38;102775;1324;73935;-84
2022/02/19 14:39:16;;;;;;;5.80;3.10;;;;;;;19.77;35.44;100693.93;103013;1323;74865;-83
2022/02/19 14:42:08;;;;;;;7.40;3.40;;;;;;;19.77;35.68;100701.65;103020;1324;60486;-83
2022/02/19 14:44:50;;;;;;;5.60;3.20;;;;;;;19.76;35.69;100695.41;103559;1320;60603;-84
2022/02/19 14:47:48;;;;;;;8.20;2.90;;;;;;;19.77;35.61;100694.30;103678;1320;71941;-83
2022/02/19 14:50:26;;;;;;;7.40;3.10;;;;;;;19.77;35.65;100695.23;103607;1321;74116;-82
2022/02/19 14:53:08;;;;;;;5.50;3.00;;;;;;;19.77;35.67;100693.42;103568;1321;60561;-82
2022/02/19 14:55:56;;;;;;;5.70;2.90;;;;;;;19.77;35.57;100696.64;103685;1320;62017;-81
2022/02/19 14:58:33;;;;;;;6.30;3.20;;;;;;;19.77;35.70;100699.27;103570;1314;72865;-86
2022/02/19 15:01:00;;;;;;;5.90;3.10;;;;;;;19.78;35.75;100697.31;104018;1314;74021;-82